Time;durP1;ratioP1;P1;durP2;ratioP2;P2;SDS_P1;SDS_P2;PMS_P1;PMS_P2;Temp;Humidity;BMP_temperature;BMP_pressure;BME280_temperature;BME280_humidity;BME280_pressure;Samples;Min_cycle;Max_cycle;Signal;HPM_P1;HPM_P2
2022/03/04 00:01:59;;;;;;;16.45;6.40;;;0.80;99.90;;;;;;4808687;29;20149;-88
2022/03/04 00:04:26;;;;;;;18.95;6.38;;;0.70;99.90;;;;;;4825050;29;20487;-86
2022/03/04 00:06:53;;;;;;;14.98;5.47;;;0.70;99.90;;;;;;4808749;29;20499;-87
2022/03/04 00:09:20;;;;;;;17.30;5.97;;;0.70;99.90;;;;;;4809150;29;20459;-81
2022/03/04 00:11:47;;;;;;;15.07;6.63;;;0.70;99.90;;;;;;4825271;29;20090;-87
2022/03/04 00:14:13;;;;;;;15.32;5.75;;;0.70;99.90;;;;;;4824818;29;20042;-82
2022/03/04 00:16:39;;;;;;;17.83;5.82;;;0.60;99.90;;;;;;4808815;29;20061;-86
2022/03/04 00:19:09;;;;;;;16.73;5.90;;;0.60;99.90;;;;;;4824873;29;20487;-82
2022/03/04 00:21:43;;;;;;;16.23;6.20;;;0.60;99.90;;;;;;4825236;29;20057;-87
2022/03/04 00:24:10;;;;;;;17.85;6.10;;;0.60;99.90;;;;;;4808142;29;20089;-86
2022/03/04 00:26:37;;;;;;;15.27;6.85;;;0.50;99.90;;;;;;4825014;29;20039;-86
2022/03/04 00:29:04;;;;;;;18.42;6.97;;;0.50;99.90;;;;;;4825160;29;20095;-86
2022/03/04 00:31:29;;;;;;;20.27;7.47;;;0.50;99.90;;;;;;4808631;29;20068;-87
2022/03/04 00:33:55;;;;;;;18.55;7.20;;;0.50;99.90;;;;;;4807588;29;20063;-86
2022/03/04 00:36:23;;;;;;;18.25;8.00;;;0.40;99.90;;;;;;4824352;29;20452;-83
2022/03/04 00:38:54;;;;;;;21.10;7.70;;;0.40;99.90;;;;;;4824500;29;20487;-86
2022/03/04 00:41:22;;;;;;;16.17;6.47;;;0.40;99.90;;;;;;4824879;29;20050;-85
2022/03/04 00:43:48;;;;;;;17.00;6.70;;;0.40;99.90;;;;;;4824895;29;20042;-86
2022/03/04 00:46:15;;;;;;;17.15;6.60;;;0.40;99.90;;;;;;4808066;29;20116;-85
2022/03/04 00:48:41;;;;;;;21.20;8.02;;;0.40;99.90;;;;;;4807828;29;20050;-84
2022/03/04 00:51:07;;;;;;;23.83;8.52;;;0.30;99.90;;;;;;4824592;29;20498;-86
2022/03/04 00:53:34;;;;;;;18.38;7.07;;;0.30;99.90;;;;;;4824639;29;20093;-85
2022/03/04 00:55:59;;;;;;;19.80;7.55;;;1.30;99.90;;;;;;4824683;29;20058;-84
2022/03/04 00:58:25;;;;;;;25.85;7.70;;;0.30;99.90;;;;;;4824423;29;20053;-80
2022/03/04 01:00:51;;;;;;;20.45;8.00;;;0.30;99.90;;;;;;4823310;29;20065;-84
2022/03/04 01:03:17;;;;;;;21.40;8.48;;;0.30;99.90;;;;;;4824686;29;20396;-86
2022/03/04 01:05:43;;;;;;;25.65;9.95;;;0.20;99.90;;;;;;4823985;29;20495;-83
2022/03/04 01:08:09;;;;;;;24.02;8.82;;;0.20;99.90;;;;;;4807563;29;20042;-86
2022/03/04 01:10:35;;;;;;;21.30;9.25;;;0.20;99.90;;;;;;4824497;29;20053;-84
2022/03/04 01:13:01;;;;;;;27.23;9.90;;;0.20;99.90;;;;;;4807795;29;20050;-83
2022/03/04 01:15:26;;;;;;;26.73;10.00;;;0.20;99.90;;;;;;4824142;29;20415;-86
2022/03/04 01:17:52;;;;;;;20.52;8.30;;;0.20;99.90;;;;;;4824388;29;20053;-84
2022/03/04 01:20:18;;;;;;;19.20;8.35;;;0.20;99.90;;;;;;4823943;29;20082;-86
2022/03/04 01:22:44;;;;;;;20.63;8.30;;;0.20;99.90;;;;;;4807538;29;20074;-86
2022/03/04 01:25:11;;;;;;;23.90;9.43;;;0.10;99.90;;;;;;4792501;29;20062;-83
2022/03/04 01:27:37;;;;;;;18.35;7.88;;;0.10;99.90;;;;;;4824332;29;20053;-84
2022/03/04 01:30:08;;;;;;;22.70;9.32;;;0.10;99.90;;;;;;4824331;29;20050;-85
2022/03/04 01:32:34;;;;;;;24.85;9.65;;;0.10;99.90;;;;;;4823976;29;20058;-84
2022/03/04 01:35:00;;;;;;;23.42;9.18;;;0.10;99.90;;;;;;4823673;29;20057;-84
2022/03/04 01:37:25;;;;;;;23.02;9.65;;;0.10;99.90;;;;;;4823968;29;20133;-82
2022/03/04 01:39:51;;;;;;;20.92;8.75;;;0.00;99.90;;;;;;4807545;29;20058;-84
2022/03/04 01:42:17;;;;;;;23.80;9.88;;;0.00;99.90;;;;;;4824058;29;20419;-86
2022/03/04 01:44:43;;;;;;;23.67;9.60;;;0.00;99.90;;;;;;4807593;29;20042;-84
2022/03/04 01:47:09;;;;;;;24.83;9.82;;;-0.10;99.90;;;;;;4825172;29;20084;-85
2022/03/04 01:49:35;;;;;;;22.67;8.63;;;-0.10;99.90;;;;;;4811215;29;20061;-80
2022/03/04 01:52:01;;;;;;;21.05;8.77;;;-0.10;99.90;;;;;;4827455;29;20089;-85
2022/03/04 01:54:27;;;;;;;18.65;7.45;;;-0.20;99.90;;;;;;4827496;29;20057;-85
2022/03/04 01:56:53;;;;;;;25.52;9.95;;;-0.20;99.90;;;;;;4827564;29;20046;-85
2022/03/04 01:59:19;;;;;;;21.98;9.20;;;-0.30;99.90;;;;;;4827171;29;20133;-85
2022/03/04 02:01:45;;;;;;;20.23;9.07;;;-0.30;99.90;;;;;;4827476;29;20129;-86
2022/03/04 02:04:11;;;;;;;26.23;9.98;;;-0.30;99.90;;;;;;4827264;29;20046;-84
2022/03/04 02:06:37;;;;;;;27.00;9.65;;;-0.30;99.90;;;;;;4827053;29;20046;-85
2022/03/04 02:09:03;;;;;;;20.90;8.10;;;-0.40;99.90;;;;;;4811075;29;20073;-86
2022/03/04 02:11:29;;;;;;;27.10;10.15;;;-0.30;99.90;;;;;;4825840;29;20050;-83
2022/03/04 02:13:55;;;;;;;25.45;9.32;;;-0.40;99.90;;;;;;4827159;29;20388;-84
2022/03/04 02:16:37;;;;;;;26.63;9.50;;;-0.40;99.90;;;;;;4826951;29;20058;-83
2022/03/04 02:19:03;;;;;;;25.23;9.23;;;-0.40;99.90;;;;;;4825140;29;20073;-83
2022/03/04 02:21:31;;;;;;;24.52;9.85;;;-0.40;99.90;;;;;;4826490;29;20510;-85
2022/03/04 02:23:57;;;;;;;24.85;9.88;;;-0.40;99.90;;;;;;4827060;29;20399;-84
2022/03/04 02:26:23;;;;;;;30.63;11.68;;;-0.40;99.90;;;;;;4826926;29;20453;-86
2022/03/04 02:28:50;;;;;;;28.25;9.63;;;-0.40;99.90;;;;;;4810410;29;20129;-85
2022/03/04 02:31:18;;;;;;;25.23;9.80;;;-0.40;99.90;;;;;;4826846;29;20054;-84
2022/03/04 02:33:45;;;;;;;21.65;9.93;;;-0.40;99.90;;;;;;4826766;29;20051;-83
2022/03/04 02:36:12;;;;;;;23.75;9.57;;;-0.40;99.90;;;;;;4825643;29;20590;-83
2022/03/04 02:38:38;;;;;;;23.60;9.70;;;-0.40;99.90;;;;;;4826495;29;20074;-84
2022/03/04 02:41:04;;;;;;;26.05;10.23;;;-0.40;99.90;;;;;;4826639;29;20085;-84
2022/03/04 02:43:30;;;;;;;28.33;11.48;;;-0.50;99.90;;;;;;4826420;29;20099;-84
2022/03/04 02:45:56;;;;;;;23.77;9.70;;;-0.40;99.90;;;;;;4810029;29;20062;-85
2022/03/04 02:48:22;;;;;;;28.52;10.80;;;-0.50;99.90;;;;;;4826587;29;20126;-85
2022/03/04 02:50:47;;;;;;;25.55;10.02;;;-0.50;99.90;;;;;;4826552;29;20050;-85
2022/03/04 02:53:13;;;;;;;25.67;9.07;;;-0.40;99.90;;;;;;4809917;29;20042;-84
2022/03/04 02:55:39;;;;;;;25.92;10.90;;;-0.40;99.90;;;;;;4826252;29;20054;-84
2022/03/04 02:58:05;;;;;;;24.83;10.02;;;-0.40;99.90;;;;;;4809696;29;20503;-85
2022/03/04 03:00:31;;;;;;;26.70;9.98;;;-0.40;99.90;;;;;;4826412;29;20046;-82
2022/03/04 03:02:57;;;;;;;27.08;9.77;;;-0.40;99.90;;;;;;4809847;29;20046;-82
2022/03/04 03:05:23;;;;;;;28.40;9.90;;;-0.40;99.90;;;;;;4826250;29;20407;-84
2022/03/04 03:07:49;;;;;;;25.88;9.90;;;-0.40;99.90;;;;;;4826022;29;20051;-85
2022/03/04 03:10:14;;;;;;;25.30;9.77;;;-0.40;99.90;;;;;;4824846;29;20054;-84
2022/03/04 03:12:41;;;;;;;24.33;10.10;;;-0.40;99.90;;;;;;4826041;29;20200;-82
2022/03/04 03:15:09;;;;;;;27.73;9.75;;;-0.40;99.90;;;;;;4826118;29;20054;-85
2022/03/04 03:17:35;;;;;;;27.65;11.15;;;-0.40;99.90;;;;;;4825947;29;20046;-81
2022/03/04 03:20:01;;;;;;;26.08;9.80;;;-0.40;99.90;;;;;;4825774;29;20060;-81
2022/03/04 03:22:27;;;;;;;28.00;11.00;;;-0.40;99.90;;;;;;4825826;29;20061;-85
2022/03/04 03:24:53;;;;;;;29.45;10.05;;;-0.40;99.90;;;;;;4825510;29;20046;-84
2022/03/04 03:27:18;;;;;;;23.15;9.65;;;-0.50;99.90;;;;;;4825808;29;20051;-86
2022/03/04 03:29:44;;;;;;;26.65;10.48;;;-0.50;99.90;;;;;;4809701;29;20137;-85
2022/03/04 03:32:10;;;;;;;27.88;10.68;;;-0.50;99.90;;;;;;4825925;29;20483;-84
2022/03/04 03:34:37;;;;;;;28.75;10.55;;;-0.50;99.90;;;;;;4825879;29;20046;-78
2022/03/04 03:37:03;;;;;;;27.00;10.52;;;-0.50;99.90;;;;;;4825434;29;20046;-86
2022/03/04 03:39:29;;;;;;;27.35;10.60;;;-0.50;99.90;;;;;;4825467;29;20089;-86
2022/03/04 03:41:54;;;;;;;27.35;10.15;;;-0.50;99.90;;;;;;4825320;29;20093;-86
2022/03/04 03:44:20;;;;;;;24.20;10.27;;;-0.50;99.90;;;;;;4809354;29;20111;-85
2022/03/04 03:46:46;;;;;;;25.92;11.30;;;-0.50;99.90;;;;;;4825743;29;20089;-85
2022/03/04 03:49:12;;;;;;;25.27;10.93;;;-0.50;99.90;;;;;;4809043;29;20137;-83
2022/03/04 03:51:37;;;;;;;24.65;10.38;;;-0.50;99.90;;;;;;4809037;29;20100;-84
2022/03/04 03:54:03;;;;;;;27.92;10.18;;;-0.50;99.90;;;;;;4825202;29;20089;-85
2022/03/04 03:56:29;;;;;;;26.55;11.73;;;-0.50;99.90;;;;;;4808645;29;20059;-85
2022/03/04 03:58:54;;;;;;;31.08;10.63;;;-0.40;99.90;;;;;;4825043;29;20062;-85
2022/03/04 04:01:20;;;;;;;26.73;11.20;;;-0.50;99.90;;;;;;4808883;29;20451;-85
2022/03/04 04:03:46;;;;;;;27.35;10.02;;;-0.50;99.90;;;;;;4825399;29;20506;-85
2022/03/04 04:06:12;;;;;;;29.65;11.05;;;-0.50;99.90;;;;;;4825386;29;20057;-84
2022/03/04 04:08:38;;;;;;;28.65;12.13;;;-0.50;99.90;;;;;;4808368;29;20069;-84
2022/03/04 04:11:03;;;;;;;25.95;10.75;;;-0.50;99.90;;;;;;4824664;29;20195;-83
2022/03/04 04:13:29;;;;;;;29.50;11.18;;;-0.50;99.90;;;;;;4825207;29;20068;-85
2022/03/04 04:15:55;;;;;;;27.35;10.73;;;-0.50;99.90;;;;;;4825233;29;20061;-86
2022/03/04 04:18:20;;;;;;;26.38;10.27;;;-0.50;99.90;;;;;;4825183;29;20043;-83
2022/03/04 04:20:46;;;;;;;30.20;11.50;;;-0.50;99.90;;;;;;4825200;29;20396;-83
2022/03/04 04:23:12;;;;;;;26.73;11.68;;;-0.50;99.90;;;;;;4808571;29;20411;-78
2022/03/04 04:25:37;;;;;;;27.75;10.38;;;-0.50;99.90;;;;;;4824736;29;20487;-81
2022/03/04 04:28:03;;;;;;;27.00;10.52;;;-0.50;99.90;;;;;;4808647;29;20419;-83
2022/03/04 04:30:30;;;;;;;28.83;10.52;;;-0.50;99.90;;;;;;4825051;29;20121;-85
2022/03/04 04:32:56;;;;;;;29.15;11.40;;;-0.50;99.90;;;;;;4825026;29;20050;-85
2022/03/04 04:35:22;;;;;;;24.95;10.23;;;-0.50;99.90;;;;;;4824988;29;20054;-85
2022/03/04 04:37:48;;;;;;;29.02;11.32;;;0.70;99.90;;;;;;4824804;29;20061;-84
2022/03/04 04:40:13;;;;;;;28.13;10.65;;;-0.50;99.90;;;;;;4824767;29;20058;-84
2022/03/04 04:42:39;;;;;;;24.70;10.63;;;-0.50;99.90;;;;;;4824263;29;20038;-83
2022/03/04 04:45:06;;;;;;;25.38;10.82;;;-0.50;99.90;;;;;;4824749;29;20042;-85
2022/03/04 04:47:31;;;;;;;27.50;11.18;;;-0.50;99.90;;;;;;4824454;29;20520;-83
2022/03/04 04:49:57;;;;;;;28.42;10.93;;;-0.50;99.90;;;;;;4824836;29;20065;-85
2022/03/04 04:52:23;;;;;;;30.90;11.55;;;-0.50;99.90;;;;;;4807837;29;20042;-85
2022/03/04 04:54:48;;;;;;;26.90;11.25;;;-0.50;99.90;;;;;;4824644;29;20050;-85
2022/03/04 04:57:14;;;;;;;24.27;10.30;;;-0.50;99.90;;;;;;4807690;29;20403;-85
2022/03/04 04:59:40;;;;;;;26.42;11.23;;;-0.50;99.90;;;;;;4824203;29;20416;-85
2022/03/04 05:02:06;;;;;;;23.30;11.52;;;-0.40;99.90;;;;;;4824652;29;20074;-85
2022/03/04 05:04:31;;;;;;;25.38;11.30;;;-0.40;99.90;;;;;;4824319;29;20499;-84
2022/03/04 05:06:57;;;;;;;25.08;11.25;;;-0.40;99.90;;;;;;4807860;29;20141;-84
2022/03/04 05:09:23;;;;;;;23.55;10.35;;;-0.40;99.90;;;;;;4824433;29;20115;-85
2022/03/04 05:11:48;;;;;;;26.23;10.95;;;-0.40;99.90;;;;;;4823967;29;20134;-84
2022/03/04 05:14:14;;;;;;;26.10;9.75;;;-0.40;99.90;;;;;;4823983;29;20062;-83
2022/03/04 05:16:40;;;;;;;25.98;11.75;;;-0.50;99.90;;;;;;4824548;29;20046;-85
2022/03/04 05:19:06;;;;;;;28.00;10.82;;;0.20;99.90;;;;;;4823144;29;20069;-84
2022/03/04 05:21:32;;;;;;;29.80;11.55;;;-0.50;99.90;;;;;;4823577;29;20051;-84
2022/03/04 05:24:00;;;;;;;28.73;11.20;;;-0.50;99.90;;;;;;4824329;29;20058;-84
2022/03/04 05:26:31;;;;;;;25.48;10.63;;;-0.50;99.90;;;;;;4825527;29;20050;-84
2022/03/04 05:28:58;;;;;;;25.80;10.77;;;-0.50;99.90;;;;;;4824923;29;20050;-80
2022/03/04 05:31:24;;;;;;;27.15;11.13;;;-0.50;99.90;;;;;;4824425;29;20050;-85
2022/03/04 05:33:50;;;;;;;27.90;11.15;;;-0.50;99.90;;;;;;4835251;29;20090;-77
2022/03/04 05:36:17;;;;;;;27.30;11.15;;;-0.50;99.90;;;;;;4847750;29;20030;-79
2022/03/04 05:38:43;;;;;;;28.05;11.85;;;-0.50;99.90;;;;;;4847699;29;20055;-77
2022/03/04 05:41:08;;;;;;;23.95;10.93;;;-0.50;99.90;;;;;;4847771;29;20078;-80
2022/03/04 05:43:34;;;;;;;27.38;11.38;;;-0.50;99.90;;;;;;4821542;29;20472;-83
2022/03/04 05:46:00;;;;;;;24.40;11.18;;;-0.50;99.90;;;;;;4808885;29;20058;-84
2022/03/04 05:48:25;;;;;;;28.73;12.38;;;-0.50;99.90;;;;;;4825270;29;20054;-84
2022/03/04 05:50:51;;;;;;;27.88;11.63;;;-0.50;99.90;;;;;;4825035;29;20398;-83
2022/03/04 05:53:17;;;;;;;26.17;10.73;;;-0.40;99.90;;;;;;4807067;29;20085;-79
2022/03/04 05:55:42;;;;;;;29.23;11.73;;;-0.40;99.90;;;;;;4824025;29;20054;-85
2022/03/04 05:58:08;;;;;;;25.77;10.52;;;-0.40;99.90;;;;;;4806852;29;20112;-84
2022/03/04 06:00:34;;;;;;;23.23;9.95;;;-0.50;99.90;;;;;;4807224;29;20058;-84
2022/03/04 06:02:59;;;;;;;24.30;9.93;;;-0.50;99.90;;;;;;4821860;29;20420;-85
2022/03/04 06:05:25;;;;;;;21.17;9.25;;;-0.50;99.90;;;;;;4822402;29;20407;-85
2022/03/04 06:07:51;;;;;;;10.52;5.18;;;-0.50;99.90;;;;;;4823840;29;20054;-84
2022/03/04 06:10:16;;;;;;;14.73;5.18;;;-0.50;99.90;;;;;;4823882;29;20034;-86
2022/03/04 06:12:42;;;;;;;17.23;4.88;;;-0.50;99.90;;;;;;4807121;29;20411;-86
2022/03/04 06:15:08;;;;;;;13.50;5.57;;;-0.50;99.90;;;;;;4823409;29;20073;-84
2022/03/04 06:17:34;;;;;;;23.25;10.35;;;-0.50;99.90;;;;;;4823849;29;20451;-86
2022/03/04 06:20:00;;;;;;;23.42;11.07;;;-0.50;99.90;;;;;;4823706;29;20151;-86
2022/03/04 06:22:26;;;;;;;27.85;12.13;;;-0.40;99.90;;;;;;4823699;29;20476;-87
2022/03/04 06:24:51;;;;;;;25.10;9.93;;;-0.40;99.90;;;;;;4823651;29;20089;-86
2022/03/04 06:27:17;;;;;;;25.90;12.38;;;-0.40;99.90;;;;;;4807184;29;20142;-84
2022/03/04 06:29:43;;;;;;;29.38;11.95;;;-0.40;99.90;;;;;;4806289;29;20062;-85
2022/03/04 06:32:09;;;;;;;24.92;11.23;;;-0.40;99.90;;;;;;4823483;29;20464;-83
2022/03/04 06:34:35;;;;;;;23.10;10.60;;;-0.40;99.90;;;;;;4810181;29;20062;-86
2022/03/04 06:37:01;;;;;;;24.05;10.40;;;-0.40;99.90;;;;;;4810622;29;20471;-85
2022/03/04 06:39:27;;;;;;;27.65;11.63;;;0.60;99.90;;;;;;4810693;29;20137;-86
2022/03/04 06:41:52;;;;;;;26.23;11.50;;;-0.40;99.90;;;;;;4827410;29;20475;-85
2022/03/04 06:44:18;;;;;;;28.38;11.50;;;-0.40;99.90;;;;;;4810449;29;20086;-87
2022/03/04 06:46:44;;;;;;;26.40;12.50;;;-0.30;99.90;;;;;;4827461;29;20188;-87
2022/03/04 06:49:10;;;;;;;27.10;12.00;;;-0.40;99.90;;;;;;4827943;29;20050;-78
2022/03/04 06:51:44;;;;;;;23.38;10.50;;;-0.40;99.90;;;;;;4826516;29;20057;-75
2022/03/04 06:54:10;;;;;;;23.75;11.23;;;-0.30;99.90;;;;;;4809692;29;20146;-82
2022/03/04 06:56:35;;;;;;;25.38;11.10;;;-0.30;99.90;;;;;;4811312;29;20129;-87
2022/03/04 06:59:01;;;;;;;27.52;12.45;;;-0.30;99.90;;;;;;4826012;29;20055;-87
2022/03/04 07:01:27;;;;;;;24.60;11.40;;;-0.40;99.90;;;;;;4826129;29;20058;-88
2022/03/04 07:03:52;;;;;;;30.30;12.70;;;-0.40;99.90;;;;;;4826514;29;20050;-87
2022/03/04 07:06:19;;;;;;;24.17;11.15;;;-0.50;99.90;;;;;;4826133;29;20054;-88
2022/03/04 07:08:45;;;;;;;27.38;11.77;;;-0.40;99.90;;;;;;4810216;29;20464;-88
2022/03/04 07:11:11;;;;;;;24.40;11.60;;;-0.40;99.90;;;;;;4826082;29;20093;-87
2022/03/04 07:13:36;;;;;;;25.15;11.23;;;-0.30;99.90;;;;;;4809552;29;20106;-90
2022/03/04 07:16:03;;;;;;;29.00;12.48;;;-0.40;99.90;;;;;;4809208;29;20473;-86
2022/03/04 07:18:29;;;;;;;27.40;12.65;;;-0.40;99.90;;;;;;4809741;29;20058;-87
2022/03/04 07:21:00;;;;;;;28.10;12.65;;;-0.30;99.90;;;;;;4826122;29;20055;-81
2022/03/04 07:23:26;;;;;;;31.60;13.57;;;-0.30;99.90;;;;;;4825914;29;20043;-83
2022/03/04 07:25:51;;;;;;;29.05;13.13;;;-0.30;99.90;;;;;;4825401;29;20053;-82
2022/03/04 07:28:18;;;;;;;26.52;12.73;;;-0.30;99.90;;;;;;4809286;29;20049;-76
2022/03/04 07:30:44;;;;;;;31.25;13.27;;;-0.30;99.90;;;;;;4830967;29;20042;-78
2022/03/04 07:33:09;;;;;;;30.33;14.20;;;-0.20;99.90;;;;;;4842550;29;20057;-73
2022/03/04 07:35:39;;;;;;;26.67;13.13;;;-0.30;99.90;;;;;;4825876;29;20062;-71
2022/03/04 07:38:05;;;;;;;27.00;13.13;;;-0.30;99.90;;;;;;4842738;29;20054;-74
2022/03/04 07:40:30;;;;;;;25.58;12.73;;;-0.30;99.90;;;;;;4826553;29;20520;-75
2022/03/04 07:42:58;;;;;;;27.05;13.57;;;-0.20;99.90;;;;;;4826159;29;20546;-73
2022/03/04 07:45:23;;;;;;;30.92;14.20;;;-0.20;99.90;;;;;;4842074;29;20049;-72
2022/03/04 07:47:49;;;;;;;31.08;13.20;;;-0.20;99.90;;;;;;4842107;29;20525;-74
2022/03/04 07:50:15;;;;;;;25.85;12.82;;;-0.20;99.90;;;;;;4842521;29;20082;-74
2022/03/04 07:52:43;;;;;;;25.00;11.77;;;-0.10;99.90;;;;;;4826469;29;20057;-74
2022/03/04 07:55:11;;;;;;;27.45;13.10;;;-0.10;99.90;;;;;;4842193;29;20054;-77
2022/03/04 07:57:37;;;;;;;23.65;11.93;;;-0.20;99.90;;;;;;4841495;29;20069;-75
2022/03/04 08:00:11;;;;;;;24.25;12.07;;;-0.20;99.90;;;;;;4825509;29;20503;-75
2022/03/04 08:02:40;;;;;;;27.52;13.23;;;-0.20;99.90;;;;;;4826195;29;20129;-77
2022/03/04 08:05:08;;;;;;;27.20;12.75;;;-0.10;99.90;;;;;;4810671;29;20058;-75
2022/03/04 08:07:36;;;;;;;27.13;11.80;;;-0.10;99.90;;;;;;4825948;29;20061;-77
2022/03/04 08:10:04;;;;;;;27.65;11.68;;;-0.10;99.90;;;;;;4842683;29;20103;-76
2022/03/04 08:12:30;;;;;;;25.83;12.88;;;0.00;99.90;;;;;;4841822;29;20049;-76
2022/03/04 08:14:55;;;;;;;25.20;12.23;;;0.10;99.90;;;;;;4825959;29;20068;-74
2022/03/04 08:17:21;;;;;;;27.15;12.18;;;0.10;99.90;;;;;;4825034;29;20068;-73
2022/03/04 08:19:47;;;;;;;27.75;12.90;;;0.20;99.90;;;;;;4842159;29;20054;-78
2022/03/04 08:22:12;;;;;;;31.45;13.93;;;0.20;99.90;;;;;;4825627;29;20050;-76
2022/03/04 08:24:38;;;;;;;29.65;12.82;;;0.30;99.90;;;;;;4825574;29;20065;-77
2022/03/04 08:27:04;;;;;;;26.20;11.75;;;0.40;99.90;;;;;;4825843;29;20054;-78
2022/03/04 08:29:29;;;;;;;26.98;12.35;;;0.40;99.90;;;;;;4825550;29;20058;-72
2022/03/04 08:31:55;;;;;;;25.33;12.52;;;0.50;99.90;;;;;;4842389;29;20407;-71
2022/03/04 08:34:20;;;;;;;27.75;13.40;;;0.50;99.90;;;;;;4825045;29;20511;-76
2022/03/04 08:36:49;;;;;;;27.95;11.63;;;0.80;99.90;;;;;;4841565;29;20057;-81
2022/03/04 08:39:15;;;;;;;25.25;12.77;;;0.60;99.90;;;;;;4842001;29;20423;-81
2022/03/04 08:41:42;;;;;;;25.30;12.45;;;0.60;99.90;;;;;;4825120;29;20058;-73
2022/03/04 08:44:09;;;;;;;26.70;11.50;;;0.60;99.90;;;;;;4841934;29;20054;-73
2022/03/04 08:46:36;;;;;;;26.83;12.98;;;1.80;99.90;;;;;;4840411;29;20118;-76
2022/03/04 08:49:05;;;;;;;26.38;11.98;;;0.70;99.90;;;;;;4825396;29;20050;-76
2022/03/04 08:51:31;;;;;;;29.70;13.43;;;0.80;99.90;;;;;;4835312;29;20050;-75
2022/03/04 08:53:56;;;;;;;27.63;12.45;;;1.10;99.90;;;;;;4833970;29;20052;-75
2022/03/04 08:56:22;;;;;;;26.98;13.57;;;0.80;99.90;;;;;;4817377;29;20062;-76
2022/03/04 08:58:48;;;;;;;25.27;12.70;;;0.80;99.90;;;;;;4834791;29;20094;-73
2022/03/04 09:01:15;;;;;;;27.38;13.45;;;0.90;99.90;;;;;;4834099;29;20051;-76
2022/03/04 09:03:41;;;;;;;25.42;12.45;;;0.90;99.90;;;;;;4830696;29;20064;-76
2022/03/04 09:06:06;;;;;;;25.13;11.70;;;1.00;99.90;;;;;;4818053;29;20050;-74
2022/03/04 09:08:32;;;;;;;25.70;12.43;;;1.00;99.90;;;;;;4831856;29;20069;-74
2022/03/04 09:10:58;;;;;;;27.33;11.98;;;1.20;99.90;;;;;;4828756;29;20455;-80
2022/03/04 09:13:25;;;;;;;24.02;11.85;;;1.30;99.90;;;;;;4827807;29;20674;-76
2022/03/04 09:15:50;;;;;;;27.20;12.45;;;1.60;99.90;;;;;;4783682;29;20120;-78
2022/03/04 09:18:16;;;;;;;23.35;12.00;;;1.70;99.90;;;;;;4816372;29;20053;-83
2022/03/04 09:20:42;;;;;;;25.20;12.27;;;2.00;99.90;;;;;;4830581;29;20054;-80
2022/03/04 09:23:08;;;;;;;23.50;11.30;;;2.20;99.90;;;;;;4830731;29;20041;-80
2022/03/04 09:25:34;;;;;;;23.52;10.68;;;3.30;99.90;;;;;;4830626;29;20066;-74
2022/03/04 09:28:02;;;;;;;22.15;10.98;;;2.60;99.90;;;;;;4823733;29;20097;-87
2022/03/04 09:30:28;;;;;;;26.80;12.80;;;2.90;99.90;;;;;;4838280;29;20563;-82
2022/03/04 09:32:54;;;;;;;25.30;12.52;;;2.90;99.90;;;;;;4838193;29;20132;-86
2022/03/04 09:35:20;;;;;;;23.83;11.50;;;3.00;99.90;;;;;;4839920;29;20058;-87
2022/03/04 09:37:46;;;;;;;23.52;11.93;;;3.00;99.90;;;;;;4835342;29;20092;-89
2022/03/04 09:40:12;;;;;;;22.13;11.07;;;3.10;99.90;;;;;;4838718;29;20050;-79
2022/03/04 09:42:39;;;;;;;22.65;11.55;;;3.10;99.90;;;;;;4837304;29;20057;-83
2022/03/04 09:45:05;;;;;;;23.20;11.20;;;3.10;99.90;;;;;;4821234;29;20727;-85
2022/03/04 09:47:31;;;;;;;23.50;10.88;;;3.30;99.90;;;;;;4837874;29;20062;-85
2022/03/04 09:49:58;;;;;;;22.30;11.07;;;3.40;99.90;;;;;;4838482;29;20418;-76
2022/03/04 09:52:24;;;;;;;25.98;11.07;;;3.60;99.90;;;;;;4838938;29;20559;-84
2022/03/04 09:54:52;;;;;;;28.08;11.70;;;3.80;99.90;;;;;;4819478;29;20054;-88
2022/03/04 09:57:18;;;;;;;22.98;10.77;;;3.90;99.90;;;;;;4823255;29;20065;-79
2022/03/04 09:59:45;;;;;;;24.13;11.23;;;4.00;99.90;;;;;;4836561;29;20202;-82
2022/03/04 10:02:14;;;;;;;22.90;10.77;;;4.00;99.90;;;;;;4821726;29;20069;-80
2022/03/04 10:04:41;;;;;;;22.73;10.70;;;4.00;99.90;;;;;;4831551;29;20050;-85
2022/03/04 10:07:17;;;;;;;23.17;10.45;;;4.00;99.90;;;;;;4838086;29;20054;-80
2022/03/04 10:09:44;;;;;;;20.98;10.93;;;4.00;99.90;;;;;;4843113;29;20084;-89
2022/03/04 10:12:11;;;;;;;22.20;11.73;;;4.00;99.90;;;;;;4841587;29;20104;-84
2022/03/04 10:14:58;;;;;;;21.20;11.55;;;4.30;99.90;;;;;;4840110;29;20120;-86
2022/03/04 10:17:25;;;;;;;22.83;10.57;;;4.20;99.90;;;;;;4842192;29;20049;-86
2022/03/04 10:20:02;;;;;;;25.15;11.70;;;4.30;99.90;;;;;;4841868;29;20052;-88
2022/03/04 10:22:44;;;;;;;23.08;10.98;;;4.30;99.90;;;;;;4837044;29;20054;-80
2022/03/04 10:25:24;;;;;;;21.80;11.05;;;4.90;99.90;;;;;;4838930;29;20061;-81
2022/03/04 10:27:51;;;;;;;22.00;10.90;;;4.40;99.90;;;;;;4841521;29;20050;-85
2022/03/04 10:30:29;;;;;;;24.70;11.88;;;4.50;99.90;;;;;;4842238;29;20467;-86
2022/03/04 10:33:18;;;;;;;24.67;12.27;;;4.50;99.90;;;;;;4841744;29;20534;-83
2022/03/04 10:35:45;;;;;;;25.48;12.63;;;4.50;99.90;;;;;;4836136;29;20495;-85
2022/03/04 10:38:20;;;;;;;24.98;12.38;;;4.50;99.90;;;;;;4809763;29;20514;-86
2022/03/04 10:40:46;;;;;;;24.10;11.73;;;4.60;99.90;;;;;;4840105;29;20053;-89
2022/03/04 10:43:12;;;;;;;21.45;10.43;;;4.80;99.90;;;;;;4823009;29;20061;-82
2022/03/04 10:45:40;;;;;;;24.55;12.48;;;4.90;99.90;;;;;;4821451;29;20746;-87
2022/03/04 10:48:10;;;;;;;23.88;11.88;;;5.00;99.90;;;;;;4841387;29;20046;-82
2022/03/04 10:50:55;;;;;;;24.20;11.27;;;5.00;99.90;;;;;;4841162;29;20098;-85
2022/03/04 10:53:23;;;;;;;22.67;10.80;;;5.10;99.90;;;;;;4839820;29;20060;-82
2022/03/04 10:56:04;;;;;;;21.10;10.15;;;5.20;99.90;;;;;;4822846;29;20046;-76
2022/03/04 10:58:31;;;;;;;21.98;9.77;;;5.20;99.90;;;;;;4841367;29;20115;-84
2022/03/04 11:01:08;;;;;;;21.45;10.93;;;5.30;99.90;;;;;;4823920;29;20054;-83
2022/03/04 11:03:34;;;;;;;26.52;10.50;;;5.30;99.90;;;;;;4843393;29;20048;-87
2022/03/04 11:06:06;;;;;;;22.45;10.40;;;5.30;99.90;;;;;;4846662;29;20057;-87
2022/03/04 11:08:32;;;;;;;25.70;10.70;;;5.40;99.90;;;;;;4846875;29;20094;-83
2022/03/04 11:10:58;;;;;;;22.30;9.98;;;5.20;99.90;;;;;;4845076;29;20803;-87
2022/03/04 11:13:25;;;;;;;20.05;9.25;;;5.20;99.90;;;;;;4842302;29;20050;-85
2022/03/04 11:15:53;;;;;;;21.35;9.32;;;5.30;99.90;;;;;;4827222;29;20049;-88
2022/03/04 11:18:21;;;;;;;25.48;9.60;;;5.40;99.90;;;;;;4844774;29;20069;-88
2022/03/04 11:20:52;;;;;;;24.15;9.85;;;5.70;99.90;;;;;;4849919;29;20646;-87
2022/03/04 11:23:21;;;;;;;19.85;9.27;;;5.40;99.90;;;;;;4841665;29;20106;-90
2022/03/04 11:26:18;;;;;;;22.65;9.13;;;5.30;99.90;;;;;;4837493;29;20069;-86
2022/03/04 11:28:50;;;;;;;20.70;9.25;;;5.40;99.90;;;;;;4841152;29;20471;-91
2022/03/04 11:31:20;;;;;;;25.60;9.43;;;5.50;99.90;;;;;;4823289;29;20074;-89
2022/03/04 11:33:51;;;;;;;22.88;9.43;;;5.70;99.90;;;;;;4824836;29;20089;-83
2022/03/04 11:36:22;;;;;;;22.25;9.73;;;5.70;99.90;;;;;;4837977;29;20050;-78
2022/03/04 11:38:48;;;;;;;22.92;9.65;;;5.80;99.90;;;;;;4839857;29;20041;-75
2022/03/04 11:41:26;;;;;;;21.42;9.35;;;5.90;99.90;;;;;;4823762;29;20411;-78
2022/03/04 11:43:54;;;;;;;21.52;9.43;;;6.00;99.90;;;;;;4839847;29;20133;-75
2022/03/04 11:46:25;;;;;;;20.40;9.88;;;5.90;99.90;;;;;;4821800;29;20058;-77
2022/03/04 11:49:28;;;;;;;19.00;9.68;;;6.00;99.90;;;;;;4840111;29;20054;-79
2022/03/04 11:52:09;;;;;;;19.85;8.85;;;6.20;99.90;;;;;;4824227;29;20092;-78
2022/03/04 11:54:44;;;;;;;20.75;9.13;;;6.90;99.90;;;;;;4813564;29;20509;-77
2022/03/04 11:57:20;;;;;;;19.90;8.55;;;6.50;99.90;;;;;;4840035;29;20492;-78
2022/03/04 12:00:13;;;;;;;20.67;8.30;;;6.50;99.90;;;;;;4839544;29;20422;-78
2022/03/04 12:02:59;;;;;;;18.08;7.75;;;6.50;99.90;;;;;;4833103;29;20103;-75
2022/03/04 12:05:32;;;;;;;18.95;8.02;;;6.60;99.90;;;;;;4836363;29;20057;-75
2022/03/04 12:08:01;;;;;;;17.45;7.55;;;6.70;99.90;;;;;;4836643;29;20073;-77
2022/03/04 12:10:31;;;;;;;21.38;7.82;;;6.80;99.90;;;;;;4839793;29;20517;-79
2022/03/04 12:13:07;;;;;;;16.02;6.80;;;6.90;99.90;;;;;;4824142;29;20081;-79
2022/03/04 12:15:37;;;;;;;18.02;8.88;;;7.00;99.90;;;;;;4814064;29;20046;-78
2022/03/04 12:18:17;;;;;;;17.05;7.65;;;7.10;99.90;;;;;;4831315;29;20106;-75
2022/03/04 12:20:42;;;;;;;15.40;6.32;;;7.20;99.90;;;;;;4837703;29;20065;-84
2022/03/04 12:23:11;;;;;;;18.67;7.38;;;7.20;99.90;;;;;;4809103;29;20501;-80
2022/03/04 12:26:00;;;;;;;15.73;6.03;;;7.20;99.90;;;;;;4822590;29;20058;-80
2022/03/04 12:28:33;;;;;;;15.35;6.88;;;7.10;99.90;;;;;;4808976;29;20121;-88
2022/03/04 12:31:01;;;;;;;17.08;5.93;;;7.00;99.90;;;;;;4823436;29;20042;-84
2022/03/04 12:33:28;;;;;;;15.10;6.32;;;7.00;99.90;;;;;;4839643;29;20054;-87
2022/03/04 12:35:57;;;;;;;16.80;6.18;;;7.50;99.90;;;;;;4837711;29;20056;-83
2022/03/04 12:38:27;;;;;;;13.88;5.88;;;7.50;99.90;;;;;;4838236;29;20054;-82